sensor_id;sensor_type;location;lat;lon;timestamp;temperature;humidity
6178;DHT22;3122;48.208;11.174;2022-07-29T00:02:05;17.70;1.00
6178;DHT22;3122;48.208;11.174;2022-07-29T00:07:06;17.70;1.00
6178;DHT22;3122;48.208;11.174;2022-07-29T00:12:06;17.80;1.00
6178;DHT22;3122;48.208;11.174;2022-07-29T00:17:07;17.80;1.00
6178;DHT22;3122;48.208;11.174;2022-07-29T00:22:08;17.80;1.00
6178;DHT22;3122;48.208;11.174;2022-07-29T00:27:08;17.90;1.00
6178;DHT22;3122;48.208;11.174;2022-07-29T00:32:09;17.90;1.00
6178;DHT22;3122;48.208;11.174;2022-07-29T00:37:09;17.80;1.00
6178;DHT22;3122;48.208;11.174;2022-07-29T00:42:10;17.70;1.00
6178;DHT22;3122;48.208;11.174;2022-07-29T00:47:11;17.70;1.00
6178;DHT22;3122;48.208;11.174;2022-07-29T00:52:12;17.90;1.00
6178;DHT22;3122;48.208;11.174;2022-07-29T00:57:13;17.80;1.00
6178;DHT22;3122;48.208;11.174;2022-07-29T01:02:14;17.80;1.00
6178;DHT22;3122;48.208;11.174;2022-07-29T01:07:15;17.80;1.00
6178;DHT22;3122;48.208;11.174;2022-07-29T01:12:18;17.70;1.00
6178;DHT22;3122;48.208;11.174;2022-07-29T01:17:50;17.70;1.00
6178;DHT22;3122;48.208;11.174;2022-07-29T01:33:07;17.70;1.00
6178;DHT22;3122;48.208;11.174;2022-07-29T01:38:13;17.80;1.00
6178;DHT22;3122;48.208;11.174;2022-07-29T01:43:18;17.80;1.00
6178;DHT22;3122;48.208;11.174;2022-07-29T01:48:33;17.60;1.00
6178;DHT22;3122;48.208;11.174;2022-07-29T01:53:41;17.80;1.00
6178;DHT22;3122;48.208;11.174;2022-07-29T01:58:43;17.80;1.00
6178;DHT22;3122;48.208;11.174;2022-07-29T02:03:46;17.80;1.00
6178;DHT22;3122;48.208;11.174;2022-07-29T02:08:48;17.80;1.00
6178;DHT22;3122;48.208;11.174;2022-07-29T02:13:49;17.90;1.00
6178;DHT22;3122;48.208;11.174;2022-07-29T02:18:52;17.80;1.00
6178;DHT22;3122;48.208;11.174;2022-07-29T02:23:55;17.90;1.00
6178;DHT22;3122;48.208;11.174;2022-07-29T02:28:59;17.90;1.00
6178;DHT22;3122;48.208;11.174;2022-07-29T02:34:02;17.70;1.00
6178;DHT22;3122;48.208;11.174;2022-07-29T02:39:04;17.70;1.00
6178;DHT22;3122;48.208;11.174;2022-07-29T02:44:16;17.70;1.00
6178;DHT22;3122;48.208;11.174;2022-07-29T02:49:38;17.70;1.00
6178;DHT22;3122;48.208;11.174;2022-07-29T02:55:06;17.60;1.00
6178;DHT22;3122;48.208;11.174;2022-07-29T03:00:10;17.40;1.00
6178;DHT22;3122;48.208;11.174;2022-07-29T03:05:16;17.30;1.00
6178;DHT22;3122;48.208;11.174;2022-07-29T03:10:18;17.30;1.00
6178;DHT22;3122;48.208;11.174;2022-07-29T03:15:19;17.20;1.00
6178;DHT22;3122;48.208;11.174;2022-07-29T03:20:20;17.20;1.00
6178;DHT22;3122;48.208;11.174;2022-07-29T03:25:21;17.20;1.00
6178;DHT22;3122;48.208;11.174;2022-07-29T03:30:22;17.20;1.00
6178;DHT22;3122;48.208;11.174;2022-07-29T03:35:23;17.10;1.00
6178;DHT22;3122;48.208;11.174;2022-07-29T03:45:52;17.10;1.00
6178;DHT22;3122;48.208;11.174;2022-07-29T03:50:55;17.00;1.00
6178;DHT22;3122;48.208;11.174;2022-07-29T03:55:59;17.00;1.00
6178;DHT22;3122;48.208;11.174;2022-07-29T04:01:02;16.90;1.00
6178;DHT22;3122;48.208;11.174;2022-07-29T04:06:05;17.00;1.00
6178;DHT22;3122;48.208;11.174;2022-07-29T04:11:06;17.00;1.00
6178;DHT22;3122;48.208;11.174;2022-07-29T04:16:07;17.00;1.00
6178;DHT22;3122;48.208;11.174;2022-07-29T04:21:07;16.90;1.00
6178;DHT22;3122;48.208;11.174;2022-07-29T04:26:08;16.90;1.00
6178;DHT22;3122;48.208;11.174;2022-07-29T04:31:11;16.70;1.00
6178;DHT22;3122;48.208;11.174;2022-07-29T04:36:12;16.80;1.00
6178;DHT22;3122;48.208;11.174;2022-07-29T04:41:13;16.90;1.00
6178;DHT22;3122;48.208;11.174;2022-07-29T04:46:13;17.00;1.00
6178;DHT22;3122;48.208;11.174;2022-07-29T04:51:15;16.90;1.00
6178;DHT22;3122;48.208;11.174;2022-07-29T04:56:16;17.00;1.00
6178;DHT22;3122;48.208;11.174;2022-07-29T05:01:16;17.10;1.00
6178;DHT22;3122;48.208;11.174;2022-07-29T05:06:17;17.20;1.00
6178;DHT22;3122;48.208;11.174;2022-07-29T05:11:18;17.40;1.00
6178;DHT22;3122;48.208;11.174;2022-07-29T05:16:18;17.30;1.00
6178;DHT22;3122;48.208;11.174;2022-07-29T05:21:19;17.40;1.00
6178;DHT22;3122;48.208;11.174;2022-07-29T05:26:19;17.60;1.00
6178;DHT22;3122;48.208;11.174;2022-07-29T05:31:20;17.60;1.00
6178;DHT22;3122;48.208;11.174;2022-07-29T05:36:20;17.60;1.00
6178;DHT22;3122;48.208;11.174;2022-07-29T05:41:21;17.70;1.00
6178;DHT22;3122;48.208;11.174;2022-07-29T05:46:22;17.90;1.00
6178;DHT22;3122;48.208;11.174;2022-07-29T05:51:22;18.00;1.00
6178;DHT22;3122;48.208;11.174;2022-07-29T05:56:23;17.90;1.00
6178;DHT22;3122;48.208;11.174;2022-07-29T06:01:23;18.00;1.00
6178;DHT22;3122;48.208;11.174;2022-07-29T06:06:24;18.00;1.00
6178;DHT22;3122;48.208;11.174;2022-07-29T06:11:25;18.30;1.00
6178;DHT22;3122;48.208;11.174;2022-07-29T06:16:25;18.30;1.00
6178;DHT22;3122;48.208;11.174;2022-07-29T06:21:26;18.60;1.00
6178;DHT22;3122;48.208;11.174;2022-07-29T06:26:26;18.80;1.00
6178;DHT22;3122;48.208;11.174;2022-07-29T06:31:27;19.00;1.00
6178;DHT22;3122;48.208;11.174;2022-07-29T06:36:28;19.10;1.00
6178;DHT22;3122;48.208;11.174;2022-07-29T06:41:28;19.10;1.00
6178;DHT22;3122;48.208;11.174;2022-07-29T06:46:29;19.10;1.00
6178;DHT22;3122;48.208;11.174;2022-07-29T06:51:30;19.20;1.00
6178;DHT22;3122;48.208;11.174;2022-07-29T06:56:31;19.40;1.00
6178;DHT22;3122;48.208;11.174;2022-07-29T07:01:32;19.50;1.00
6178;DHT22;3122;48.208;11.174;2022-07-29T07:06:33;19.60;1.00
6178;DHT22;3122;48.208;11.174;2022-07-29T07:11:33;19.70;1.00
6178;DHT22;3122;48.208;11.174;2022-07-29T07:16:34;19.70;1.00
6178;DHT22;3122;48.208;11.174;2022-07-29T07:21:35;20.00;1.00
6178;DHT22;3122;48.208;11.174;2022-07-29T07:26:35;20.00;1.00
6178;DHT22;3122;48.208;11.174;2022-07-29T07:31:36;20.50;1.00
6178;DHT22;3122;48.208;11.174;2022-07-29T07:36:37;20.70;1.00
6178;DHT22;3122;48.208;11.174;2022-07-29T07:41:37;20.70;1.00
6178;DHT22;3122;48.208;11.174;2022-07-29T07:46:38;20.80;1.00
6178;DHT22;3122;48.208;11.174;2022-07-29T07:51:39;21.20;1.00
6178;DHT22;3122;48.208;11.174;2022-07-29T07:56:39;21.50;1.00
6178;DHT22;3122;48.208;11.174;2022-07-29T08:01:40;21.40;1.00
6178;DHT22;3122;48.208;11.174;2022-07-29T08:06:40;21.10;1.00
6178;DHT22;3122;48.208;11.174;2022-07-29T08:11:41;21.40;1.00
6178;DHT22;3122;48.208;11.174;2022-07-29T08:16:41;21.80;1.00
6178;DHT22;3122;48.208;11.174;2022-07-29T08:21:43;21.90;1.00
6178;DHT22;3122;48.208;11.174;2022-07-29T08:26:44;21.90;1.00
6178;DHT22;3122;48.208;11.174;2022-07-29T08:31:44;21.90;1.00
6178;DHT22;3122;48.208;11.174;2022-07-29T08:36:46;21.90;1.00
6178;DHT22;3122;48.208;11.174;2022-07-29T08:41:46;22.00;1.00
6178;DHT22;3122;48.208;11.174;2022-07-29T08:46:49;21.90;1.00
6178;DHT22;3122;48.208;11.174;2022-07-29T08:51:50;22.00;1.00
6178;DHT22;3122;48.208;11.174;2022-07-29T08:56:51;21.90;1.00
6178;DHT22;3122;48.208;11.174;2022-07-29T09:01:53;21.90;1.00
6178;DHT22;3122;48.208;11.174;2022-07-29T09:06:55;22.10;1.00
6178;DHT22;3122;48.208;11.174;2022-07-29T09:11:59;22.10;1.00
6178;DHT22;3122;48.208;11.174;2022-07-29T09:17:00;22.10;1.00
6178;DHT22;3122;48.208;11.174;2022-07-29T09:22:05;22.40;1.00
6178;DHT22;3122;48.208;11.174;2022-07-29T09:27:18;22.60;1.00
6178;DHT22;3122;48.208;11.174;2022-07-29T09:32:20;22.90;1.00
6178;DHT22;3122;48.208;11.174;2022-07-29T09:37:28;22.80;1.00
6178;DHT22;3122;48.208;11.174;2022-07-29T09:42:29;23.00;1.00
6178;DHT22;3122;48.208;11.174;2022-07-29T09:47:45;23.40;1.00
6178;DHT22;3122;48.208;11.174;2022-07-29T09:52:49;23.70;1.00
6178;DHT22;3122;48.208;11.174;2022-07-29T09:57:50;23.60;1.00
6178;DHT22;3122;48.208;11.174;2022-07-29T10:02:50;23.30;1.00
6178;DHT22;3122;48.208;11.174;2022-07-29T10:07:53;23.60;1.00
6178;DHT22;3122;48.208;11.174;2022-07-29T10:12:58;23.80;1.00
6178;DHT22;3122;48.208;11.174;2022-07-29T10:17:59;23.80;1.00
6178;DHT22;3122;48.208;11.174;2022-07-29T10:23:00;23.70;1.00
6178;DHT22;3122;48.208;11.174;2022-07-29T10:28:01;23.40;1.00
6178;DHT22;3122;48.208;11.174;2022-07-29T10:43:46;24.00;1.00
6178;DHT22;3122;48.208;11.174;2022-07-29T10:49:13;24.10;1.00
6178;DHT22;3122;48.208;11.174;2022-07-29T10:54:43;23.90;1.00
6178;DHT22;3122;48.208;11.174;2022-07-29T10:59:49;23.80;1.00
6178;DHT22;3122;48.208;11.174;2022-07-29T11:15:15;24.00;1.00
6178;DHT22;3122;48.208;11.174;2022-07-29T11:25:38;24.50;1.00
6178;DHT22;3122;48.208;11.174;2022-07-29T11:30:48;24.50;1.00
6178;DHT22;3122;48.208;11.174;2022-07-29T11:41:24;25.00;1.00
6178;DHT22;3122;48.208;11.174;2022-07-29T11:46:44;25.20;1.00
6178;DHT22;3122;48.208;11.174;2022-07-29T11:51:56;25.10;1.00
6178;DHT22;3122;48.208;11.174;2022-07-29T11:56:58;25.20;1.00
6178;DHT22;3122;48.208;11.174;2022-07-29T12:01:59;25.20;1.00
6178;DHT22;3122;48.208;11.174;2022-07-29T12:07:00;25.30;1.00
6178;DHT22;3122;48.208;11.174;2022-07-29T12:12:01;25.90;1.00
6178;DHT22;3122;48.208;11.174;2022-07-29T12:17:01;25.90;1.00
6178;DHT22;3122;48.208;11.174;2022-07-29T12:22:02;25.90;1.00
6178;DHT22;3122;48.208;11.174;2022-07-29T12:27:03;25.50;1.00
6178;DHT22;3122;48.208;11.174;2022-07-29T12:32:03;25.10;1.00
6178;DHT22;3122;48.208;11.174;2022-07-29T12:37:06;25.10;1.00
6178;DHT22;3122;48.208;11.174;2022-07-29T12:42:13;24.80;1.00
6178;DHT22;3122;48.208;11.174;2022-07-29T12:47:15;25.00;1.00
6178;DHT22;3122;48.208;11.174;2022-07-29T12:52:33;24.70;1.00
6178;DHT22;3122;48.208;11.174;2022-07-29T12:57:48;24.70;1.00
6178;DHT22;3122;48.208;11.174;2022-07-29T13:02:58;24.90;1.00
6178;DHT22;3122;48.208;11.174;2022-07-29T13:08:13;24.80;1.00
6178;DHT22;3122;48.208;11.174;2022-07-29T13:13:15;24.70;1.00
6178;DHT22;3122;48.208;11.174;2022-07-29T13:18:33;24.60;1.00
6178;DHT22;3122;48.208;11.174;2022-07-29T13:23:36;24.50;1.00
6178;DHT22;3122;48.208;11.174;2022-07-29T13:28:37;24.30;1.00
6178;DHT22;3122;48.208;11.174;2022-07-29T13:33:37;24.10;1.00
6178;DHT22;3122;48.208;11.174;2022-07-29T13:38:38;24.00;1.00
6178;DHT22;3122;48.208;11.174;2022-07-29T13:43:38;23.70;1.00
6178;DHT22;3122;48.208;11.174;2022-07-29T13:48:39;23.70;1.00
6178;DHT22;3122;48.208;11.174;2022-07-29T13:53:40;23.70;1.00
6178;DHT22;3122;48.208;11.174;2022-07-29T13:58:40;23.60;1.00
6178;DHT22;3122;48.208;11.174;2022-07-29T14:03:41;23.40;1.00
6178;DHT22;3122;48.208;11.174;2022-07-29T14:08:43;23.40;1.00
6178;DHT22;3122;48.208;11.174;2022-07-29T14:13:44;23.50;1.00
6178;DHT22;3122;48.208;11.174;2022-07-29T14:18:44;23.40;1.00
6178;DHT22;3122;48.208;11.174;2022-07-29T14:23:45;23.30;1.00
6178;DHT22;3122;48.208;11.174;2022-07-29T14:28:46;23.30;1.00
6178;DHT22;3122;48.208;11.174;2022-07-29T14:33:46;23.40;1.00
6178;DHT22;3122;48.208;11.174;2022-07-29T14:38:47;23.50;1.00
6178;DHT22;3122;48.208;11.174;2022-07-29T14:43:47;23.40;1.00
6178;DHT22;3122;48.208;11.174;2022-07-29T14:48:48;23.40;1.00
6178;DHT22;3122;48.208;11.174;2022-07-29T14:53:49;23.40;1.00
6178;DHT22;3122;48.208;11.174;2022-07-29T14:58:49;23.40;1.00
6178;DHT22;3122;48.208;11.174;2022-07-29T15:03:50;23.60;1.00
6178;DHT22;3122;48.208;11.174;2022-07-29T15:08:51;23.70;1.00
6178;DHT22;3122;48.208;11.174;2022-07-29T15:13:52;23.80;1.00
6178;DHT22;3122;48.208;11.174;2022-07-29T15:18:52;24.10;1.00
6178;DHT22;3122;48.208;11.174;2022-07-29T15:23:53;24.70;1.00
6178;DHT22;3122;48.208;11.174;2022-07-29T15:28:53;24.60;1.00
6178;DHT22;3122;48.208;11.174;2022-07-29T15:33:56;24.50;1.00
6178;DHT22;3122;48.208;11.174;2022-07-29T15:38:57;24.20;1.00
6178;DHT22;3122;48.208;11.174;2022-07-29T15:43:57;24.10;1.00
6178;DHT22;3122;48.208;11.174;2022-07-29T15:48:58;24.10;1.00
6178;DHT22;3122;48.208;11.174;2022-07-29T15:54:01;24.10;1.00
6178;DHT22;3122;48.208;11.174;2022-07-29T15:59:02;24.00;1.00
6178;DHT22;3122;48.208;11.174;2022-07-29T16:04:03;23.80;1.00
6178;DHT22;3122;48.208;11.174;2022-07-29T16:09:04;23.80;1.00
6178;DHT22;3122;48.208;11.174;2022-07-29T16:14:05;23.60;1.00
6178;DHT22;3122;48.208;11.174;2022-07-29T16:19:05;23.50;1.00
6178;DHT22;3122;48.208;11.174;2022-07-29T16:24:08;23.30;1.00
6178;DHT22;3122;48.208;11.174;2022-07-29T16:29:09;23.20;1.00
6178;DHT22;3122;48.208;11.174;2022-07-29T16:34:09;23.00;1.00
6178;DHT22;3122;48.208;11.174;2022-07-29T16:39:10;23.00;1.00
6178;DHT22;3122;48.208;11.174;2022-07-29T16:44:12;22.90;1.00
6178;DHT22;3122;48.208;11.174;2022-07-29T16:49:12;22.60;1.00
6178;DHT22;3122;48.208;11.174;2022-07-29T16:54:13;22.60;1.00
6178;DHT22;3122;48.208;11.174;2022-07-29T16:59:13;22.30;1.00
6178;DHT22;3122;48.208;11.174;2022-07-29T17:04:14;22.10;1.00
6178;DHT22;3122;48.208;11.174;2022-07-29T17:09:15;21.20;1.00
6178;DHT22;3122;48.208;11.174;2022-07-29T17:14:15;20.40;1.00
6178;DHT22;3122;48.208;11.174;2022-07-29T17:19:16;19.70;1.00
6178;DHT22;3122;48.208;11.174;2022-07-29T17:24:17;19.30;1.00
6178;DHT22;3122;48.208;11.174;2022-07-29T17:29:17;19.10;1.00
6178;DHT22;3122;48.208;11.174;2022-07-29T17:34:18;18.90;1.00
6178;DHT22;3122;48.208;11.174;2022-07-29T17:39:18;18.90;1.00
6178;DHT22;3122;48.208;11.174;2022-07-29T17:44:19;18.80;1.00
6178;DHT22;3122;48.208;11.174;2022-07-29T17:49:20;18.40;1.00
6178;DHT22;3122;48.208;11.174;2022-07-29T17:54:20;18.20;1.00
6178;DHT22;3122;48.208;11.174;2022-07-29T17:59:21;18.10;1.00
6178;DHT22;3122;48.208;11.174;2022-07-29T18:04:21;17.80;1.00
6178;DHT22;3122;48.208;11.174;2022-07-29T18:09:22;17.60;1.00
6178;DHT22;3122;48.208;11.174;2022-07-29T18:14:23;17.60;1.00
6178;DHT22;3122;48.208;11.174;2022-07-29T18:19:23;17.80;1.00
6178;DHT22;3122;48.208;11.174;2022-07-29T18:24:24;17.90;1.00
6178;DHT22;3122;48.208;11.174;2022-07-29T18:29:26;18.00;1.00
6178;DHT22;3122;48.208;11.174;2022-07-29T18:34:28;17.90;1.00
6178;DHT22;3122;48.208;11.174;2022-07-29T18:39:28;17.80;1.00
6178;DHT22;3122;48.208;11.174;2022-07-29T18:44:29;17.90;1.00
6178;DHT22;3122;48.208;11.174;2022-07-29T18:49:30;17.90;1.00
6178;DHT22;3122;48.208;11.174;2022-07-29T18:54:30;17.80;1.00
6178;DHT22;3122;48.208;11.174;2022-07-29T18:59:31;17.70;1.00
6178;DHT22;3122;48.208;11.174;2022-07-29T19:04:33;17.60;1.00
6178;DHT22;3122;48.208;11.174;2022-07-29T19:09:34;17.60;1.00
6178;DHT22;3122;48.208;11.174;2022-07-29T19:14:36;17.60;1.00
6178;DHT22;3122;48.208;11.174;2022-07-29T19:19:36;17.60;1.00
6178;DHT22;3122;48.208;11.174;2022-07-29T19:24:37;17.70;1.00
6178;DHT22;3122;48.208;11.174;2022-07-29T19:29:38;17.60;1.00
6178;DHT22;3122;48.208;11.174;2022-07-29T19:34:38;17.70;1.00
6178;DHT22;3122;48.208;11.174;2022-07-29T19:39:39;17.60;1.00
6178;DHT22;3122;48.208;11.174;2022-07-29T19:44:40;17.60;1.00
6178;DHT22;3122;48.208;11.174;2022-07-29T19:49:40;17.60;1.00
6178;DHT22;3122;48.208;11.174;2022-07-29T19:54:41;17.60;1.00
6178;DHT22;3122;48.208;11.174;2022-07-29T19:59:41;17.60;1.00
6178;DHT22;3122;48.208;11.174;2022-07-29T20:04:42;17.60;1.00
6178;DHT22;3122;48.208;11.174;2022-07-29T20:09:43;17.50;1.00
6178;DHT22;3122;48.208;11.174;2022-07-29T20:14:45;17.50;1.00
6178;DHT22;3122;48.208;11.174;2022-07-29T20:19:45;17.40;1.00
6178;DHT22;3122;48.208;11.174;2022-07-29T20:24:46;17.30;1.00
6178;DHT22;3122;48.208;11.174;2022-07-29T20:29:46;17.40;1.00
6178;DHT22;3122;48.208;11.174;2022-07-29T20:34:47;17.40;1.00
6178;DHT22;3122;48.208;11.174;2022-07-29T20:39:48;17.40;1.00
6178;DHT22;3122;48.208;11.174;2022-07-29T20:44:48;17.40;1.00
6178;DHT22;3122;48.208;11.174;2022-07-29T20:49:51;17.40;1.00
6178;DHT22;3122;48.208;11.174;2022-07-29T20:54:51;17.40;1.00
6178;DHT22;3122;48.208;11.174;2022-07-29T20:59:52;17.30;1.00
6178;DHT22;3122;48.208;11.174;2022-07-29T21:04:53;17.40;1.00
6178;DHT22;3122;48.208;11.174;2022-07-29T21:09:53;17.30;1.00
6178;DHT22;3122;48.208;11.174;2022-07-29T21:14:54;17.30;1.00
6178;DHT22;3122;48.208;11.174;2022-07-29T21:19:54;17.20;1.00
6178;DHT22;3122;48.208;11.174;2022-07-29T21:24:55;17.30;1.00
6178;DHT22;3122;48.208;11.174;2022-07-29T21:29:56;17.30;1.00
6178;DHT22;3122;48.208;11.174;2022-07-29T21:34:56;17.30;1.00
6178;DHT22;3122;48.208;11.174;2022-07-29T21:39:57;17.30;1.00
6178;DHT22;3122;48.208;11.174;2022-07-29T21:44:58;17.30;1.00
6178;DHT22;3122;48.208;11.174;2022-07-29T21:49:59;17.40;1.00
6178;DHT22;3122;48.208;11.174;2022-07-29T21:54:59;17.20;1.00
6178;DHT22;3122;48.208;11.174;2022-07-29T22:00:00;17.30;1.00
6178;DHT22;3122;48.208;11.174;2022-07-29T22:05:01;17.30;1.00
6178;DHT22;3122;48.208;11.174;2022-07-29T22:10:02;17.30;1.00
6178;DHT22;3122;48.208;11.174;2022-07-29T22:15:03;17.30;1.00
6178;DHT22;3122;48.208;11.174;2022-07-29T22:20:04;17.40;1.00
6178;DHT22;3122;48.208;11.174;2022-07-29T22:25:06;17.30;1.00
6178;DHT22;3122;48.208;11.174;2022-07-29T22:30:08;17.20;1.00
6178;DHT22;3122;48.208;11.174;2022-07-29T22:35:09;17.10;1.00
6178;DHT22;3122;48.208;11.174;2022-07-29T22:40:10;17.10;1.00
6178;DHT22;3122;48.208;11.174;2022-07-29T22:45:11;17.10;1.00
6178;DHT22;3122;48.208;11.174;2022-07-29T22:50:12;17.10;1.00
6178;DHT22;3122;48.208;11.174;2022-07-29T22:55:13;17.10;1.00
6178;DHT22;3122;48.208;11.174;2022-07-29T23:00:14;17.20;1.00
6178;DHT22;3122;48.208;11.174;2022-07-29T23:05:14;17.00;1.00
6178;DHT22;3122;48.208;11.174;2022-07-29T23:10:15;17.00;1.00
6178;DHT22;3122;48.208;11.174;2022-07-29T23:15:15;17.00;1.00
6178;DHT22;3122;48.208;11.174;2022-07-29T23:20:16;17.10;1.00
6178;DHT22;3122;48.208;11.174;2022-07-29T23:25:17;17.00;1.00
6178;DHT22;3122;48.208;11.174;2022-07-29T23:30:17;17.00;1.00
6178;DHT22;3122;48.208;11.174;2022-07-29T23:35:18;17.00;1.00
6178;DHT22;3122;48.208;11.174;2022-07-29T23:40:19;17.10;1.00
6178;DHT22;3122;48.208;11.174;2022-07-29T23:45:19;17.00;1.00
6178;DHT22;3122;48.208;11.174;2022-07-29T23:50:20;17.00;1.00
6178;DHT22;3122;48.208;11.174;2022-07-29T23:55:20;17.00;1.00
